sensor_id;sensor_type;location;lat;lon;timestamp;pressure;altitude;pressure_sealevel;temperature;humidity
69784;BME280;57054;51.978;4.498;2024-01-27T00:00:35;103446.25;;;3.99;100.00
69784;BME280;57054;51.978;4.498;2024-01-27T00:03:00;103450.59;;;4.00;100.00
69784;BME280;57054;51.978;4.498;2024-01-27T00:05:25;103448.66;;;3.93;100.00
69784;BME280;57054;51.978;4.498;2024-01-27T00:07:50;103451.34;;;3.96;100.00
69784;BME280;57054;51.978;4.498;2024-01-27T00:10:16;103452.22;;;3.96;100.00
69784;BME280;57054;51.978;4.498;2024-01-27T00:12:41;103457.56;;;4.01;100.00
69784;BME280;57054;51.978;4.498;2024-01-27T00:15:07;103448.03;;;4.01;100.00
69784;BME280;57054;51.978;4.498;2024-01-27T00:17:32;103454.84;;;3.98;100.00
69784;BME280;57054;51.978;4.498;2024-01-27T00:19:59;103454.78;;;3.95;100.00
69784;BME280;57054;51.978;4.498;2024-01-27T00:22:24;103457.41;;;3.96;100.00
69784;BME280;57054;51.978;4.498;2024-01-27T00:24:49;103453.31;;;4.04;100.00
69784;BME280;57054;51.978;4.498;2024-01-27T00:27:15;103448.25;;;4.08;100.00
69784;BME280;57054;51.978;4.498;2024-01-27T00:29:40;103451.59;;;4.05;100.00
69784;BME280;57054;51.978;4.498;2024-01-27T00:32:05;103449.81;;;4.02;100.00
69784;BME280;57054;51.978;4.498;2024-01-27T00:34:31;103449.88;;;4.04;100.00
69784;BME280;57054;51.978;4.498;2024-01-27T00:36:56;103451.56;;;4.03;100.00
69784;BME280;57054;51.978;4.498;2024-01-27T00:39:22;103451.66;;;4.07;100.00
69784;BME280;57054;51.978;4.498;2024-01-27T00:41:47;103449.16;;;4.10;100.00
69784;BME280;57054;51.978;4.498;2024-01-27T00:44:13;103455.81;;;4.01;100.00
69784;BME280;57054;51.978;4.498;2024-01-27T00:46:38;103460.19;;;4.02;100.00
69784;BME280;57054;51.978;4.498;2024-01-27T00:49:03;103459.34;;;4.03;100.00
69784;BME280;57054;51.978;4.498;2024-01-27T00:51:28;103460.25;;;4.04;100.00
69784;BME280;57054;51.978;4.498;2024-01-27T00:53:54;103469.00;;;4.08;100.00
69784;BME280;57054;51.978;4.498;2024-01-27T00:56:19;103464.63;;;4.07;100.00
69784;BME280;57054;51.978;4.498;2024-01-27T00:58:44;103462.91;;;4.07;100.00
69784;BME280;57054;51.978;4.498;2024-01-27T01:01:09;103469.91;;;4.10;100.00
69784;BME280;57054;51.978;4.498;2024-01-27T01:03:35;103468.28;;;4.13;100.00
69784;BME280;57054;51.978;4.498;2024-01-27T01:06:00;103466.47;;;4.11;100.00
69784;BME280;57054;51.978;4.498;2024-01-27T01:08:25;103473.28;;;4.07;100.00
69784;BME280;57054;51.978;4.498;2024-01-27T01:10:51;103460.31;;;4.07;100.00
69784;BME280;57054;51.978;4.498;2024-01-27T01:13:16;103468.13;;;4.09;100.00
69784;BME280;57054;51.978;4.498;2024-01-27T01:15:41;103471.66;;;4.11;100.00
69784;BME280;57054;51.978;4.498;2024-01-27T01:18:07;103461.16;;;4.06;100.00
69784;BME280;57054;51.978;4.498;2024-01-27T01:20:32;103461.09;;;4.04;100.00
69784;BME280;57054;51.978;4.498;2024-01-27T01:22:57;103471.53;;;4.06;100.00
69784;BME280;57054;51.978;4.498;2024-01-27T01:25:23;103470.59;;;4.04;100.00
69784;BME280;57054;51.978;4.498;2024-01-27T01:27:48;103462.84;;;4.04;100.00
69784;BME280;57054;51.978;4.498;2024-01-27T01:30:14;103466.19;;;4.01;100.00
69784;BME280;57054;51.978;4.498;2024-01-27T01:32:40;103461.66;;;3.94;100.00
69784;BME280;57054;51.978;4.498;2024-01-27T01:35:05;103469.34;;;3.90;100.00
69784;BME280;57054;51.978;4.498;2024-01-27T01:37:30;103462.25;;;3.84;100.00
69784;BME280;57054;51.978;4.498;2024-01-27T01:39:55;103458.69;;;3.80;100.00
69784;BME280;57054;51.978;4.498;2024-01-27T01:42:21;103451.72;;;3.79;100.00
69784;BME280;57054;51.978;4.498;2024-01-27T01:44:49;103460.38;;;3.78;100.00
69784;BME280;57054;51.978;4.498;2024-01-27T01:47:15;103458.75;;;3.83;100.00
69784;BME280;57054;51.978;4.498;2024-01-27T01:49:40;103463.91;;;3.82;100.00
69784;BME280;57054;51.978;4.498;2024-01-27T01:52:06;103454.47;;;3.84;100.00
69784;BME280;57054;51.978;4.498;2024-01-27T01:54:31;103470.84;;;3.83;100.00
69784;BME280;57054;51.978;4.498;2024-01-27T01:56:58;103469.97;;;3.82;100.00
69784;BME280;57054;51.978;4.498;2024-01-27T01:59:23;103473.44;;;3.83;100.00
69784;BME280;57054;51.978;4.498;2024-01-27T02:01:48;103483.75;;;3.81;100.00
69784;BME280;57054;51.978;4.498;2024-01-27T02:04:14;103482.66;;;3.73;100.00
69784;BME280;57054;51.978;4.498;2024-01-27T02:06:39;103480.78;;;3.68;100.00
69784;BME280;57054;51.978;4.498;2024-01-27T02:09:04;103476.25;;;3.62;100.00
69784;BME280;57054;51.978;4.498;2024-01-27T02:11:30;103480.53;;;3.60;100.00
69784;BME280;57054;51.978;4.498;2024-01-27T02:13:55;103480.47;;;3.58;100.00
69784;BME280;57054;51.978;4.498;2024-01-27T02:16:20;103482.13;;;3.56;100.00
69784;BME280;57054;51.978;4.498;2024-01-27T02:18:46;103475.91;;;3.50;100.00
69784;BME280;57054;51.978;4.498;2024-01-27T02:21:11;103482.75;;;3.48;100.00
69784;BME280;57054;51.978;4.498;2024-01-27T02:23:37;103482.59;;;3.43;100.00
69784;BME280;57054;51.978;4.498;2024-01-27T02:26:02;103482.41;;;3.37;100.00
69784;BME280;57054;51.978;4.498;2024-01-27T02:28:27;103481.38;;;3.32;100.00
69784;BME280;57054;51.978;4.498;2024-01-27T02:30:52;103477.03;;;3.31;100.00
69784;BME280;57054;51.978;4.498;2024-01-27T02:33:18;103479.78;;;3.35;100.00
69784;BME280;57054;51.978;4.498;2024-01-27T02:35:43;103482.25;;;3.32;100.00
69784;BME280;57054;51.978;4.498;2024-01-27T02:38:09;103487.25;;;3.26;100.00
69784;BME280;57054;51.978;4.498;2024-01-27T02:40:34;103479.38;;;3.23;100.00
69784;BME280;57054;51.978;4.498;2024-01-27T02:42:59;103471.50;;;3.20;100.00
69784;BME280;57054;51.978;4.498;2024-01-27T02:45:24;103465.34;;;3.16;100.00
69784;BME280;57054;51.978;4.498;2024-01-27T02:47:49;103468.91;;;3.20;100.00
69784;BME280;57054;51.978;4.498;2024-01-27T02:50:15;103468.09;;;3.21;100.00
69784;BME280;57054;51.978;4.498;2024-01-27T02:52:40;103464.47;;;3.16;100.00
69784;BME280;57054;51.978;4.498;2024-01-27T02:55:05;103475.47;;;3.08;100.00
69784;BME280;57054;51.978;4.498;2024-01-27T02:57:31;103474.22;;;2.97;100.00
69784;BME280;57054;51.978;4.498;2024-01-27T02:59:56;103474.84;;;2.90;100.00
69784;BME280;57054;51.978;4.498;2024-01-27T03:02:21;103475.66;;;2.89;100.00
69784;BME280;57054;51.978;4.498;2024-01-27T03:04:46;103492.97;;;2.90;100.00
69784;BME280;57054;51.978;4.498;2024-01-27T03:07:11;103487.63;;;2.85;100.00
69784;BME280;57054;51.978;4.498;2024-01-27T03:09:37;103486.69;;;2.83;100.00
69784;BME280;57054;51.978;4.498;2024-01-27T03:12:02;103486.66;;;2.82;100.00
69784;BME280;57054;51.978;4.498;2024-01-27T03:14:27;103491.19;;;2.87;100.00
69784;BME280;57054;51.978;4.498;2024-01-27T03:16:54;103478.25;;;2.89;100.00
69784;BME280;57054;51.978;4.498;2024-01-27T03:19:19;103491.31;;;2.92;100.00
69784;BME280;57054;51.978;4.498;2024-01-27T03:21:45;103497.47;;;2.96;100.00
69784;BME280;57054;51.978;4.498;2024-01-27T03:24:10;103499.09;;;2.92;100.00
69784;BME280;57054;51.978;4.498;2024-01-27T03:26:35;103499.69;;;2.85;100.00
69784;BME280;57054;51.978;4.498;2024-01-27T03:29:00;103494.28;;;2.77;100.00
69784;BME280;57054;51.978;4.498;2024-01-27T03:31:32;103492.44;;;2.75;100.00
69784;BME280;57054;51.978;4.498;2024-01-27T03:33:58;103487.38;;;2.78;100.00
69784;BME280;57054;51.978;4.498;2024-01-27T03:36:24;103489.16;;;2.79;100.00
69784;BME280;57054;51.978;4.498;2024-01-27T03:38:49;103483.25;;;2.83;100.00
69784;BME280;57054;51.978;4.498;2024-01-27T03:41:14;103483.31;;;2.84;100.00
69784;BME280;57054;51.978;4.498;2024-01-27T03:43:39;103482.44;;;2.85;100.00
69784;BME280;57054;51.978;4.498;2024-01-27T03:46:05;103485.88;;;2.84;100.00
69784;BME280;57054;51.978;4.498;2024-01-27T03:48:30;103482.50;;;2.87;100.00
69784;BME280;57054;51.978;4.498;2024-01-27T03:50:55;103480.72;;;2.84;100.00
69784;BME280;57054;51.978;4.498;2024-01-27T03:53:21;103474.50;;;2.79;100.00
69784;BME280;57054;51.978;4.498;2024-01-27T03:55:46;103478.81;;;2.79;100.00
69784;BME280;57054;51.978;4.498;2024-01-27T03:58:11;103476.22;;;2.79;100.00
69784;BME280;57054;51.978;4.498;2024-01-27T04:00:36;103472.84;;;2.81;100.00
69784;BME280;57054;51.978;4.498;2024-01-27T04:03:02;103476.22;;;2.79;100.00
69784;BME280;57054;51.978;4.498;2024-01-27T04:05:28;103479.56;;;2.76;100.00
69784;BME280;57054;51.978;4.498;2024-01-27T04:07:54;103473.38;;;2.71;100.00
69784;BME280;57054;51.978;4.498;2024-01-27T04:10:19;103477.56;;;2.67;100.00
69784;BME280;57054;51.978;4.498;2024-01-27T04:12:45;103479.25;;;2.67;100.00
69784;BME280;57054;51.978;4.498;2024-01-27T04:15:10;103488.78;;;2.68;100.00
69784;BME280;57054;51.978;4.498;2024-01-27T04:17:39;103495.69;;;2.69;100.00
69784;BME280;57054;51.978;4.498;2024-01-27T04:20:05;103500.88;;;2.69;100.00
69784;BME280;57054;51.978;4.498;2024-01-27T04:22:31;103499.88;;;2.65;100.00
69784;BME280;57054;51.978;4.498;2024-01-27T04:24:56;103494.50;;;2.59;100.00
69784;BME280;57054;51.978;4.498;2024-01-27T04:27:21;103491.91;;;2.59;100.00
69784;BME280;57054;51.978;4.498;2024-01-27T04:29:47;103481.56;;;2.59;100.00
69784;BME280;57054;51.978;4.498;2024-01-27T04:32:12;103485.97;;;2.62;100.00
69784;BME280;57054;51.978;4.498;2024-01-27T04:34:38;103482.38;;;2.58;100.00
69784;BME280;57054;51.978;4.498;2024-01-27T04:37:03;103489.41;;;2.61;100.00
69784;BME280;57054;51.978;4.498;2024-01-27T04:39:28;103483.38;;;2.62;100.00
69784;BME280;57054;51.978;4.498;2024-01-27T04:41:54;103486.75;;;2.59;100.00
69784;BME280;57054;51.978;4.498;2024-01-27T04:44:19;103485.66;;;2.53;100.00
69784;BME280;57054;51.978;4.498;2024-01-27T04:46:45;103476.88;;;2.49;100.00
69784;BME280;57054;51.978;4.498;2024-01-27T04:49:10;103477.63;;;2.45;100.00
69784;BME280;57054;51.978;4.498;2024-01-27T04:51:36;103481.06;;;2.45;100.00
69784;BME280;57054;51.978;4.498;2024-01-27T04:54:01;103482.03;;;2.47;100.00
69784;BME280;57054;51.978;4.498;2024-01-27T04:56:26;103483.78;;;2.48;100.00
69784;BME280;57054;51.978;4.498;2024-01-27T04:58:52;103484.56;;;2.46;100.00
69784;BME280;57054;51.978;4.498;2024-01-27T05:01:17;103480.94;;;2.41;100.00
69784;BME280;57054;51.978;4.498;2024-01-27T05:03:42;103479.88;;;2.36;100.00
69784;BME280;57054;51.978;4.498;2024-01-27T05:06:07;103482.41;;;2.34;100.00
69784;BME280;57054;51.978;4.498;2024-01-27T05:08:33;103489.13;;;2.29;100.00
69784;BME280;57054;51.978;4.498;2024-01-27T05:11:00;103491.75;;;2.30;100.00
69784;BME280;57054;51.978;4.498;2024-01-27T05:13:25;103492.66;;;2.31;100.00
69784;BME280;57054;51.978;4.498;2024-01-27T05:15:50;103483.91;;;2.27;100.00
69784;BME280;57054;51.978;4.498;2024-01-27T05:18:15;103480.34;;;2.24;100.00
69784;BME280;57054;51.978;4.498;2024-01-27T05:20:41;103486.31;;;2.23;100.00
69784;BME280;57054;51.978;4.498;2024-01-27T05:23:06;103480.44;;;2.27;100.00
69784;BME280;57054;51.978;4.498;2024-01-27T05:25:31;103484.59;;;2.23;100.00
69784;BME280;57054;51.978;4.498;2024-01-27T05:27:56;103488.97;;;2.24;100.00
69784;BME280;57054;51.978;4.498;2024-01-27T05:30:22;103492.44;;;2.25;100.00
69784;BME280;57054;51.978;4.498;2024-01-27T05:32:47;103492.31;;;2.22;100.00
69784;BME280;57054;51.978;4.498;2024-01-27T05:35:12;103493.88;;;2.17;100.00
69784;BME280;57054;51.978;4.498;2024-01-27T05:37:37;103492.03;;;2.14;100.00
69784;BME280;57054;51.978;4.498;2024-01-27T05:40:05;103486.00;;;2.14;100.00
69784;BME280;57054;51.978;4.498;2024-01-27T05:42:31;103486.84;;;2.14;100.00
69784;BME280;57054;51.978;4.498;2024-01-27T05:44:56;103494.75;;;2.17;100.00
69784;BME280;57054;51.978;4.498;2024-01-27T05:47:21;103488.63;;;2.15;100.00
69784;BME280;57054;51.978;4.498;2024-01-27T05:49:46;103484.13;;;2.09;100.00
69784;BME280;57054;51.978;4.498;2024-01-27T05:52:12;103489.16;;;2.06;100.00
69784;BME280;57054;51.978;4.498;2024-01-27T05:54:39;103496.88;;;2.05;100.00
69784;BME280;57054;51.978;4.498;2024-01-27T05:57:04;103504.50;;;2.02;100.00
69784;BME280;57054;51.978;4.498;2024-01-27T05:59:29;103500.97;;;2.00;100.00
69784;BME280;57054;51.978;4.498;2024-01-27T06:01:54;103487.91;;;1.95;100.00
69784;BME280;57054;51.978;4.498;2024-01-27T06:04:20;103488.81;;;1.97;100.00
69784;BME280;57054;51.978;4.498;2024-01-27T06:06:45;103486.19;;;1.96;100.00
69784;BME280;57054;51.978;4.498;2024-01-27T06:09:10;103467.91;;;1.91;100.00
69784;BME280;57054;51.978;4.498;2024-01-27T06:11:36;103473.03;;;1.89;100.00
69784;BME280;57054;51.978;4.498;2024-01-27T06:14:01;103472.13;;;1.89;100.00
69784;BME280;57054;51.978;4.498;2024-01-27T06:16:26;103468.47;;;1.82;100.00
69784;BME280;57054;51.978;4.498;2024-01-27T06:18:51;103470.13;;;1.80;100.00
69784;BME280;57054;51.978;4.498;2024-01-27T06:21:18;103473.38;;;1.76;100.00
69784;BME280;57054;51.978;4.498;2024-01-27T06:23:43;103476.81;;;1.75;100.00
69784;BME280;57054;51.978;4.498;2024-01-27T06:26:09;103474.97;;;1.72;100.00
69784;BME280;57054;51.978;4.498;2024-01-27T06:28:34;103477.47;;;1.69;100.00
69784;BME280;57054;51.978;4.498;2024-01-27T06:31:00;103486.84;;;1.67;100.00
69784;BME280;57054;51.978;4.498;2024-01-27T06:33:25;103493.63;;;1.65;100.00
69784;BME280;57054;51.978;4.498;2024-01-27T06:35:51;103498.00;;;1.66;100.00
69784;BME280;57054;51.978;4.498;2024-01-27T06:38:16;103510.09;;;1.67;100.00
69784;BME280;57054;51.978;4.498;2024-01-27T06:40:41;103512.69;;;1.67;100.00
69784;BME280;57054;51.978;4.498;2024-01-27T06:43:06;103518.66;;;1.66;100.00
69784;BME280;57054;51.978;4.498;2024-01-27T06:45:32;103514.44;;;1.68;100.00
69784;BME280;57054;51.978;4.498;2024-01-27T06:47:57;103509.19;;;1.67;100.00
69784;BME280;57054;51.978;4.498;2024-01-27T06:50:22;103515.28;;;1.67;100.00
69784;BME280;57054;51.978;4.498;2024-01-27T06:52:48;103512.03;;;1.73;100.00
69784;BME280;57054;51.978;4.498;2024-01-27T06:55:13;103509.47;;;1.73;100.00
69784;BME280;57054;51.978;4.498;2024-01-27T06:57:38;103517.94;;;1.70;100.00
69784;BME280;57054;51.978;4.498;2024-01-27T07:00:05;103523.97;;;1.69;100.00
69784;BME280;57054;51.978;4.498;2024-01-27T07:02:31;103517.84;;;1.67;100.00
69784;BME280;57054;51.978;4.498;2024-01-27T07:04:56;103523.81;;;1.66;100.00
69784;BME280;57054;51.978;4.498;2024-01-27T07:07:22;103517.16;;;1.71;100.00
69784;BME280;57054;51.978;4.498;2024-01-27T07:09:48;103516.44;;;1.76;100.00
69784;BME280;57054;51.978;4.498;2024-01-27T07:12:14;103512.28;;;1.79;100.00
69784;BME280;57054;51.978;4.498;2024-01-27T07:14:39;103507.97;;;1.80;100.00
69784;BME280;57054;51.978;4.498;2024-01-27T07:17:04;103497.56;;;1.78;100.00
69784;BME280;57054;51.978;4.498;2024-01-27T07:19:30;103506.38;;;1.83;100.00
69784;BME280;57054;51.978;4.498;2024-01-27T07:21:55;103514.97;;;1.82;100.00
69784;BME280;57054;51.978;4.498;2024-01-27T07:24:20;103517.50;;;1.81;100.00
69784;BME280;57054;51.978;4.498;2024-01-27T07:26:46;103520.22;;;1.84;100.00
69784;BME280;57054;51.978;4.498;2024-01-27T07:29:11;103517.63;;;1.84;100.00
69784;BME280;57054;51.978;4.498;2024-01-27T07:31:36;103515.06;;;1.85;100.00
69784;BME280;57054;51.978;4.498;2024-01-27T07:34:02;103516.06;;;1.89;100.00
69784;BME280;57054;51.978;4.498;2024-01-27T07:36:30;103515.13;;;1.87;100.00
69784;BME280;57054;51.978;4.498;2024-01-27T07:38:57;103520.25;;;1.85;100.00
69784;BME280;57054;51.978;4.498;2024-01-27T07:41:22;103515.91;;;1.84;100.00
69784;BME280;57054;51.978;4.498;2024-01-27T07:43:48;103508.97;;;1.83;100.00
69784;BME280;57054;51.978;4.498;2024-01-27T07:46:13;103509.09;;;1.86;100.00
69784;BME280;57054;51.978;4.498;2024-01-27T07:48:38;103504.81;;;1.87;100.00
69784;BME280;57054;51.978;4.498;2024-01-27T07:51:03;103509.22;;;1.89;100.00
69784;BME280;57054;51.978;4.498;2024-01-27T07:53:29;103500.69;;;1.92;100.00
69784;BME280;57054;51.978;4.498;2024-01-27T07:55:54;103505.88;;;1.92;100.00
69784;BME280;57054;51.978;4.498;2024-01-27T07:58:21;103516.19;;;1.92;100.00
69784;BME280;57054;51.978;4.498;2024-01-27T08:00:46;103507.44;;;1.88;100.00
69784;BME280;57054;51.978;4.498;2024-01-27T08:03:11;103495.41;;;1.89;100.00
69784;BME280;57054;51.978;4.498;2024-01-27T08:05:36;103497.97;;;1.89;100.00
69784;BME280;57054;51.978;4.498;2024-01-27T08:08:02;103505.94;;;1.94;100.00
69784;BME280;57054;51.978;4.498;2024-01-27T08:10:27;103502.56;;;1.96;100.00
69784;BME280;57054;51.978;4.498;2024-01-27T08:12:53;103518.06;;;1.96;100.00
69784;BME280;57054;51.978;4.498;2024-01-27T08:15:18;103521.59;;;1.98;100.00
69784;BME280;57054;51.978;4.498;2024-01-27T08:17:43;103526.81;;;2.00;100.00
69784;BME280;57054;51.978;4.498;2024-01-27T08:20:08;103532.91;;;2.00;100.00
69784;BME280;57054;51.978;4.498;2024-01-27T08:22:34;103526.06;;;2.02;100.00
69784;BME280;57054;51.978;4.498;2024-01-27T08:24:59;103524.50;;;2.06;100.00
69784;BME280;57054;51.978;4.498;2024-01-27T08:27:24;103527.94;;;2.06;100.00
69784;BME280;57054;51.978;4.498;2024-01-27T08:29:50;103534.91;;;2.09;100.00
69784;BME280;57054;51.978;4.498;2024-01-27T08:32:15;103538.44;;;2.11;100.00
69784;BME280;57054;51.978;4.498;2024-01-27T08:34:41;103548.03;;;2.14;100.00
69784;BME280;57054;51.978;4.498;2024-01-27T08:37:14;103549.91;;;2.18;100.00
69784;BME280;57054;51.978;4.498;2024-01-27T08:39:39;103550.84;;;2.20;100.00
69784;BME280;57054;51.978;4.498;2024-01-27T08:42:04;103546.66;;;2.23;100.00
69784;BME280;57054;51.978;4.498;2024-01-27T08:44:29;103548.38;;;2.23;100.00
69784;BME280;57054;51.978;4.498;2024-01-27T08:46:55;103552.63;;;2.21;100.00
69784;BME280;57054;51.978;4.498;2024-01-27T08:49:20;103558.84;;;2.26;100.00
69784;BME280;57054;51.978;4.498;2024-01-27T08:51:45;103545.91;;;2.26;100.00
69784;BME280;57054;51.978;4.498;2024-01-27T08:54:10;103546.97;;;2.31;100.00
69784;BME280;57054;51.978;4.498;2024-01-27T08:56:39;103543.66;;;2.35;100.00
69784;BME280;57054;51.978;4.498;2024-01-27T08:59:04;103550.72;;;2.39;100.00
69784;BME280;57054;51.978;4.498;2024-01-27T09:01:29;103543.13;;;2.44;100.00
69784;BME280;57054;51.978;4.498;2024-01-27T09:03:54;103538.97;;;2.49;100.00
69784;BME280;57054;51.978;4.498;2024-01-27T09:06:20;103533.00;;;2.50;100.00
69784;BME280;57054;51.978;4.498;2024-01-27T09:08:45;103542.63;;;2.54;100.00
69784;BME280;57054;51.978;4.498;2024-01-27T09:11:10;103557.41;;;2.58;100.00
69784;BME280;57054;51.978;4.498;2024-01-27T09:13:36;103563.50;;;2.59;100.00
69784;BME280;57054;51.978;4.498;2024-01-27T09:16:01;103559.25;;;2.61;100.00
69784;BME280;57054;51.978;4.498;2024-01-27T09:18:27;103567.13;;;2.64;100.00
69784;BME280;57054;51.978;4.498;2024-01-27T09:20:52;103554.22;;;2.65;100.00
69784;BME280;57054;51.978;4.498;2024-01-27T09:23:18;103558.66;;;2.68;100.00
69784;BME280;57054;51.978;4.498;2024-01-27T09:25:43;103559.53;;;2.68;100.00
69784;BME280;57054;51.978;4.498;2024-01-27T09:28:08;103560.50;;;2.72;100.00
69784;BME280;57054;51.978;4.498;2024-01-27T09:30:33;103555.53;;;2.78;100.00
69784;BME280;57054;51.978;4.498;2024-01-27T09:32:59;103559.09;;;2.80;100.00
69784;BME280;57054;51.978;4.498;2024-01-27T09:35:24;103557.50;;;2.84;100.00
69784;BME280;57054;51.978;4.498;2024-01-27T09:37:49;103558.47;;;2.87;100.00
69784;BME280;57054;51.978;4.498;2024-01-27T09:40:14;103563.75;;;2.91;100.00
69784;BME280;57054;51.978;4.498;2024-01-27T09:42:40;103563.84;;;2.94;100.00
69784;BME280;57054;51.978;4.498;2024-01-27T09:45:10;103574.41;;;3.00;100.00
69784;BME280;57054;51.978;4.498;2024-01-27T09:47:36;103579.66;;;3.01;100.00
69784;BME280;57054;51.978;4.498;2024-01-27T09:50:01;103571.16;;;3.05;100.00
69784;BME280;57054;51.978;4.498;2024-01-27T09:52:27;103595.41;;;3.07;100.00
69784;BME280;57054;51.978;4.498;2024-01-27T09:54:52;103592.03;;;3.10;100.00
69784;BME280;57054;51.978;4.498;2024-01-27T09:57:18;103593.03;;;3.14;100.00
69784;BME280;57054;51.978;4.498;2024-01-27T09:59:45;103594.88;;;3.18;100.00
69784;BME280;57054;51.978;4.498;2024-01-27T10:02:12;103583.03;;;3.24;100.00
69784;BME280;57054;51.978;4.498;2024-01-27T10:04:40;103590.06;;;3.29;100.00
69784;BME280;57054;51.978;4.498;2024-01-27T10:07:06;103608.44;;;3.35;100.00
69784;BME280;57054;51.978;4.498;2024-01-27T10:09:33;103602.56;;;3.40;100.00
69784;BME280;57054;51.978;4.498;2024-01-27T10:11:58;103600.06;;;3.43;100.00
69784;BME280;57054;51.978;4.498;2024-01-27T10:14:25;103601.16;;;3.50;100.00
69784;BME280;57054;51.978;4.498;2024-01-27T10:16:51;103597.88;;;3.56;100.00
69784;BME280;57054;51.978;4.498;2024-01-27T10:19:17;103598.03;;;3.60;100.00
69784;BME280;57054;51.978;4.498;2024-01-27T10:21:43;103596.56;;;3.69;100.00
69784;BME280;57054;51.978;4.498;2024-01-27T10:24:08;103589.75;;;3.72;100.00
69784;BME280;57054;51.978;4.498;2024-01-27T10:26:34;103592.56;;;3.78;100.00
69784;BME280;57054;51.978;4.498;2024-01-27T10:29:00;103595.28;;;3.83;100.00
69784;BME280;57054;51.978;4.498;2024-01-27T10:31:30;103592.81;;;3.86;100.00
69784;BME280;57054;51.978;4.498;2024-01-27T10:33:56;103594.66;;;3.90;100.00
69784;BME280;57054;51.978;4.498;2024-01-27T10:36:21;103594.81;;;3.95;100.00
69784;BME280;57054;51.978;4.498;2024-01-27T10:38:47;103600.13;;;3.99;100.00
69784;BME280;57054;51.978;4.498;2024-01-27T10:41:12;103592.50;;;4.04;100.00
69784;BME280;57054;51.978;4.498;2024-01-27T10:43:43;103602.94;;;4.07;100.00
69784;BME280;57054;51.978;4.498;2024-01-27T10:46:09;103597.81;;;4.09;100.00
69784;BME280;57054;51.978;4.498;2024-01-27T10:48:36;103612.63;;;4.13;100.00
69784;BME280;57054;51.978;4.498;2024-01-27T10:51:07;103605.00;;;4.17;100.00
69784;BME280;57054;51.978;4.498;2024-01-27T10:53:32;103606.78;;;4.20;100.00
69784;BME280;57054;51.978;4.498;2024-01-27T10:56:00;103613.84;;;4.24;100.00
69784;BME280;57054;51.978;4.498;2024-01-27T10:58:26;103607.88;;;4.27;100.00
69784;BME280;57054;51.978;4.498;2024-01-27T11:00:53;103598.47;;;4.30;100.00
69784;BME280;57054;51.978;4.498;2024-01-27T11:03:18;103600.28;;;4.34;100.00
69784;BME280;57054;51.978;4.498;2024-01-27T11:05:44;103589.97;;;4.36;100.00
69784;BME280;57054;51.978;4.498;2024-01-27T11:08:11;103589.22;;;4.40;100.00
69784;BME280;57054;51.978;4.498;2024-01-27T11:10:37;103588.50;;;4.46;100.00
69784;BME280;57054;51.978;4.498;2024-01-27T11:13:04;103592.97;;;4.50;100.00
69784;BME280;57054;51.978;4.498;2024-01-27T11:15:29;103592.16;;;4.52;100.00
69784;BME280;57054;51.978;4.498;2024-01-27T11:17:57;103585.31;;;4.54;100.00
69784;BME280;57054;51.978;4.498;2024-01-27T11:20:27;103580.22;;;4.57;100.00
69784;BME280;57054;51.978;4.498;2024-01-27T11:22:52;103590.75;;;4.62;100.00
69784;BME280;57054;51.978;4.498;2024-01-27T11:25:19;103596.84;;;4.64;100.00
69784;BME280;57054;51.978;4.498;2024-01-27T11:27:45;103585.59;;;4.65;100.00
69784;BME280;57054;51.978;4.498;2024-01-27T11:30:30;103583.09;;;4.68;100.00
69784;BME280;57054;51.978;4.498;2024-01-27T11:33:00;103580.63;;;4.73;100.00
69784;BME280;57054;51.978;4.498;2024-01-27T11:35:26;103578.97;;;4.75;100.00
69784;BME280;57054;51.978;4.498;2024-01-27T11:37:51;103579.00;;;4.76;100.00
69784;BME280;57054;51.978;4.498;2024-01-27T11:40:17;103577.25;;;4.75;100.00
69784;BME280;57054;51.978;4.498;2024-01-27T11:42:42;103580.75;;;4.77;100.00
69784;BME280;57054;51.978;4.498;2024-01-27T11:45:08;103573.06;;;4.80;100.00
69784;BME280;57054;51.978;4.498;2024-01-27T11:47:34;103581.81;;;4.84;100.00
69784;BME280;57054;51.978;4.498;2024-01-27T11:49:59;103579.25;;;4.86;100.00
69784;BME280;57054;51.978;4.498;2024-01-27T11:52:24;103577.59;;;4.89;100.00
69784;BME280;57054;51.978;4.498;2024-01-27T11:54:56;103578.56;;;4.93;100.00
69784;BME280;57054;51.978;4.498;2024-01-27T11:57:22;103572.59;;;4.95;100.00
69784;BME280;57054;51.978;4.498;2024-01-27T11:59:47;103578.69;;;4.97;100.00
69784;BME280;57054;51.978;4.498;2024-01-27T12:02:12;103562.28;;;4.98;100.00
69784;BME280;57054;51.978;4.498;2024-01-27T12:04:38;103566.69;;;5.01;100.00
69784;BME280;57054;51.978;4.498;2024-01-27T12:07:03;103564.13;;;5.03;100.00
69784;BME280;57054;51.978;4.498;2024-01-27T12:09:28;103565.88;;;5.04;100.00
69784;BME280;57054;51.978;4.498;2024-01-27T12:11:54;103557.28;;;5.06;100.00
69784;BME280;57054;51.978;4.498;2024-01-27T12:14:19;103559.03;;;5.07;100.00
69784;BME280;57054;51.978;4.498;2024-01-27T12:16:44;103556.44;;;5.07;100.00
69784;BME280;57054;51.978;4.498;2024-01-27T12:19:10;103554.75;;;5.08;100.00
69784;BME280;57054;51.978;4.498;2024-01-27T12:21:36;103558.25;;;5.10;100.00
69784;BME280;57054;51.978;4.498;2024-01-27T12:24:01;103541.84;;;5.12;100.00
69784;BME280;57054;51.978;4.498;2024-01-27T12:26:30;103539.38;;;5.17;100.00
69784;BME280;57054;51.978;4.498;2024-01-27T12:28:55;103529.91;;;5.19;100.00
69784;BME280;57054;51.978;4.498;2024-01-27T12:31:22;103532.53;;;5.21;100.00
69784;BME280;57054;51.978;4.498;2024-01-27T12:33:48;103536.88;;;5.22;100.00
69784;BME280;57054;51.978;4.498;2024-01-27T12:36:16;103528.22;;;5.21;100.00
69784;BME280;57054;51.978;4.498;2024-01-27T12:38:41;103530.84;;;5.23;100.00
69784;BME280;57054;51.978;4.498;2024-01-27T12:41:06;103518.72;;;5.23;100.00